Time;durP1;ratioP1;P1;durP2;ratioP2;P2;SDS_P1;SDS_P2;PMS_P1;PMS_P2;Temp;Humidity;BMP_temperature;BMP_pressure;BME280_temperature;BME280_humidity;BME280_pressure;Samples;Min_cycle;Max_cycle;Signal;HPM_P1;HPM_P2
2024/04/21 00:00:46;;;;;;;;;8.33;6.67;;;;;8.69;56.28;102458.81;2191983;26;2746325;-72
2024/04/21 00:01:59;;;;;;;;;7.00;4.00;;;;;8.61;55.98;102457.91;2201015;25;2754419;-72
2024/04/21 00:03:13;;;;;;;;;4.67;4.50;;;;;8.63;56.63;102456.16;2207697;25;2750192;-72
2024/04/21 00:04:24;;;;;;;;;6.33;4.00;;;;;8.61;56.77;102460.53;2179124;25;2752434;-72
2024/04/21 00:05:38;;;;;;;;;4.83;4.00;;;;;8.63;56.29;102456.16;2209060;25;2746073;-72
2024/04/21 00:06:51;;;;;;;;;6.50;4.67;;;;;8.65;56.20;102460.53;2181136;25;2748138;-73
2024/04/21 00:08:06;;;;;;;;;6.67;3.83;;;;;8.65;56.59;102451.78;2192415;26;2747091;-73
2024/04/21 00:09:21;;;;;;;;;5.50;5.00;;;;;8.65;56.81;102444.81;2194201;26;2747122;-72
2024/04/21 00:10:35;;;;;;;;;5.17;3.67;;;;;8.71;56.57;102451.81;2205742;26;2741860;-72
2024/04/21 00:11:49;;;;;;;;;6.50;3.50;;;;;8.76;56.68;102452.72;2202779;26;2750515;-73
2024/04/21 00:13:04;;;;;;;;;7.50;5.83;;;;;8.78;56.45;102455.34;2168534;26;2747394;-72
2024/04/21 00:14:18;;;;;;;;;6.17;4.00;;;;;8.80;56.42;102450.09;2192652;26;2754399;-72
2024/04/21 00:15:32;;;;;;;;;7.00;5.83;;;;;8.82;56.53;102446.59;2202741;26;2749636;-73
2024/04/21 00:16:45;;;;;;;;;5.83;5.83;;;;;8.85;56.40;102445.72;2182292;25;2748144;-73
2024/04/21 00:17:59;;;;;;;;;4.83;4.00;;;;;8.86;56.29;102440.50;2207244;26;2745058;-73
2024/04/21 00:19:10;;;;;;;;;9.00;5.00;;;;;8.89;56.12;102447.47;2178038;26;2762803;-72
2024/04/21 00:20:24;;;;;;;;;6.67;5.00;;;;;8.88;56.16;102445.75;2197932;26;2731435;-72
2024/04/21 00:21:35;;;;;;;;;9.67;6.00;;;;;8.85;56.78;102445.72;2164640;26;2770108;-72
2024/04/21 00:22:50;;;;;;;;;4.83;4.00;;;;;8.85;56.17;102445.72;2195440;26;2742950;-73
2024/04/21 00:24:03;;;;;;;;;7.83;5.33;;;;;8.82;56.51;102432.59;2193382;26;2746054;-72
2024/04/21 00:25:17;;;;;;;;;8.83;6.00;;;;;8.84;55.90;102441.38;2167590;26;2756548;-72
2024/04/21 00:26:31;;;;;;;;;7.33;7.33;;;;;8.82;56.54;102440.47;2167890;26;2742940;-73
2024/04/21 00:27:45;;;;;;;;;6.50;5.67;;;;;8.79;55.96;102433.47;2167315;26;2746038;-72
2024/04/21 00:28:58;;;;;;;;;5.67;5.67;;;;;8.77;55.85;102445.72;2192943;26;2747119;-72
2024/04/21 00:30:12;;;;;;;;;6.33;6.33;;;;;8.76;55.93;102447.47;2207977;26;2742927;-72
2024/04/21 00:31:26;;;;;;;;;5.67;4.83;;;;;8.76;56.32;102434.38;2206841;26;2739813;-72
2024/04/21 00:32:40;;;;;;;;;5.33;4.17;;;;;8.77;56.47;102433.47;2194475;26;2752327;-73
2024/04/21 00:33:54;;;;;;;;;3.67;3.67;;;;;8.76;56.22;102423.00;2207091;26;2750205;-72
2024/04/21 00:35:07;;;;;;;;;7.33;4.83;;;;;8.75;56.48;102424.75;2172162;26;2748444;-73
2024/04/21 00:36:21;;;;;;;;;6.67;5.33;;;;;8.73;56.28;102426.50;2171364;26;2746061;-72
2024/04/21 00:37:35;;;;;;;;;7.17;4.33;;;;;8.76;56.55;102430.88;2193841;26;2748185;-73
2024/04/21 00:38:49;;;;;;;;;4.67;3.17;;;;;8.76;56.29;102423.88;2194953;26;2739866;-72
2024/04/21 00:40:03;;;;;;;;;3.00;3.00;;;;;8.76;56.68;102421.25;2169487;26;2750197;-73
2024/04/21 00:41:17;;;;;;;;;4.17;3.83;;;;;8.80;56.03;102427.38;2167534;26;2752295;-73
2024/04/21 00:42:30;;;;;;;;;7.00;4.50;;;;;8.79;56.14;102420.34;2168941;26;2756470;-72
2024/04/21 00:43:44;;;;;;;;;3.83;3.83;;;;;8.75;55.99;102421.22;2198340;26;2749177;-72
2024/04/21 00:44:58;;;;;;;;;5.17;2.83;;;;;8.73;56.65;102418.63;2194267;25;2749226;-72
2024/04/21 00:46:13;;;;;;;;;5.00;5.00;;;;;8.71;56.45;102420.38;2167254;26;2748150;-72
2024/04/21 00:47:26;;;;;;;;;7.33;4.67;;;;;8.71;56.24;102416.88;2167797;26;2754367;-72
2024/04/21 00:48:40;;;;;;;;;5.17;4.00;;;;;8.71;56.17;102420.38;2181133;26;2754406;-72
2024/04/21 00:49:54;;;;;;;;;5.00;4.67;;;;;8.67;56.10;102418.59;2205699;26;2754367;-72
2024/04/21 00:51:08;;;;;;;;;5.67;4.33;;;;;8.64;56.37;102422.09;2181792;26;2751319;-72
2024/04/21 00:52:22;;;;;;;;;5.50;3.83;;;;;8.60;55.78;102415.09;2205744;26;2746050;-72
2024/04/21 00:53:36;;;;;;;;;4.17;3.67;;;;;8.59;56.23;102408.13;2194197;26;2754443;-72
2024/04/21 00:54:50;;;;;;;;;5.50;5.33;;;;;8.57;56.23;102412.41;2192572;26;2746076;-72
2024/04/21 00:56:06;;;;;;;;;4.50;3.17;;;;;8.55;56.28;102417.66;2207205;26;2725633;-72
2024/04/21 00:57:20;;;;;;;;;6.00;5.17;;;;;8.54;56.88;102410.66;2196268;26;2745070;-72
2024/04/21 00:58:34;;;;;;;;;6.50;5.17;;;;;8.50;56.14;102406.28;2181614;26;2733530;-73
2024/04/21 00:59:49;;;;;;;;;3.17;3.17;;;;;8.52;56.13;102401.94;2206471;26;2738861;-72
2024/04/21 01:01:00;;;;;;;;;9.00;5.67;;;;;8.55;56.56;102401.06;2167243;25;2757586;-72
2024/04/21 01:02:14;;;;;;;;;3.33;3.33;;;;;8.52;56.67;102401.94;2200838;25;2746050;-72
2024/04/21 01:03:28;;;;;;;;;3.67;3.00;;;;;8.50;56.90;102401.06;2193079;26;2742002;-72
2024/04/21 01:04:43;;;;;;;;;6.00;4.00;;;;;8.49;56.82;102390.56;2195156;26;2739777;-73
2024/04/21 01:05:57;;;;;;;;;4.33;3.17;;;;;8.50;56.69;102387.94;2194886;26;2744992;-73
2024/04/21 01:07:11;;;;;;;;;4.83;4.50;;;;;8.51;56.74;102388.84;2193315;26;2739804;-73
2024/04/21 01:08:25;;;;;;;;;5.17;2.83;;;;;8.50;56.24;102387.94;2194954;26;2739800;-72
2024/04/21 01:09:39;;;;;;;;;4.50;4.00;;;;;8.50;56.70;102381.81;2176382;25;2737747;-72
2024/04/21 01:10:52;;;;;;;;;3.67;3.00;;;;;8.49;57.08;102380.97;2181582;26;2748167;-73
2024/04/21 01:12:06;;;;;;;;;5.50;4.33;;;;;8.53;57.07;102382.72;2171763;26;2748200;-73
2024/04/21 01:13:20;;;;;;;;;3.33;2.50;;;;;8.52;56.96;102382.72;2205984;26;2735650;-72
2024/04/21 01:14:34;;;;;;;;;4.17;4.17;;;;;8.51;56.40;102380.97;2207823;26;2754423;-73
2024/04/21 01:15:52;;;;;;;;;6.67;3.00;;;;;8.49;57.20;102380.97;2181482;26;2743950;-72
2024/04/21 01:17:05;;;;;;;;;5.50;5.50;;;;;8.46;56.74;102380.97;2198774;25;2740818;-72
2024/04/21 01:18:16;;;;;;;;;4.00;3.00;;;;;8.46;56.41;102386.19;2147366;26;2743997;-72
2024/04/21 01:19:30;;;;;;;;;3.83;1.83;;;;;8.46;56.84;102383.59;2208044;26;2741918;-72
2024/04/21 01:20:45;;;;;;;;;6.00;4.83;;;;;8.48;57.09;102379.22;2192275;26;2749170;-72
2024/04/21 01:21:58;;;;;;;;;6.50;3.17;;;;;8.50;57.16;102385.31;2182874;26;2744021;-72
2024/04/21 01:23:12;;;;;;;;;5.33;3.50;;;;;8.49;57.20;102374.84;2191806;26;2754379;-72
2024/04/21 01:24:26;;;;;;;;;4.67;4.50;;;;;8.51;56.57;102378.34;2193655;26;2745004;-72
2024/04/21 01:25:40;;;;;;;;;7.67;5.67;;;;;8.53;56.74;102377.47;2167355;26;2761705;-72
2024/04/21 01:26:55;;;;;;;;;4.00;2.17;;;;;8.53;56.54;102377.47;2169216;26;2729630;-72
2024/04/21 01:28:08;;;;;;;;;2.83;1.67;;;;;8.52;57.10;102377.50;2185624;26;2737716;-73
2024/04/21 01:29:22;;;;;;;;;4.83;4.00;;;;;8.48;57.00;102370.47;2192647;26;2754431;-72
2024/04/21 01:30:36;;;;;;;;;3.17;3.00;;;;;8.48;56.93;102379.22;2194459;26;2734584;-72
2024/04/21 01:31:47;;;;;;;;;9.00;4.67;;;;;8.49;56.62;102375.72;2164274;26;2759611;-72
2024/04/21 01:33:00;;;;;;;;;5.50;5.50;;;;;8.48;56.68;102368.72;2195849;26;2732547;-72
2024/04/21 01:34:14;;;;;;;;;4.17;3.67;;;;;8.51;57.27;102374.00;2180172;26;2754382;-73
2024/04/21 01:35:29;;;;;;;;;7.00;3.17;;;;;8.53;56.67;102369.63;2179557;26;2740268;-73
2024/04/21 01:36:42;;;;;;;;;7.17;4.83;;;;;8.54;56.62;102367.88;2194352;26;2755440;-72
2024/04/21 01:37:56;;;;;;;;;5.67;3.17;;;;;8.54;57.00;102368.72;2181333;26;2752319;-72
2024/04/21 01:39:10;;;;;;;;;2.83;2.00;;;;;8.53;56.71;102371.34;2181718;26;2732540;-72
2024/04/21 01:40:24;;;;;;;;;5.33;3.50;;;;;8.51;56.79;102367.88;2206053;26;2750230;-73
2024/04/21 01:41:37;;;;;;;;;3.00;3.00;;;;;8.50;57.26;102369.59;2182969;26;2737724;-72
2024/04/21 01:42:48;;;;;;;;;4.67;4.33;;;;;8.46;56.64;102365.25;2177800;26;2754410;-72
2024/04/21 01:44:02;;;;;;;;;5.17;4.00;;;;;8.42;56.89;102369.59;2206784;26;2754379;-73
2024/04/21 01:45:16;;;;;;;;;5.67;3.17;;;;;8.46;56.76;102374.84;2207707;26;2732489;-72
2024/04/21 01:46:29;;;;;;;;;6.17;5.33;;;;;8.47;56.93;102366.97;2207157;26;2748152;-72
2024/04/21 01:47:43;;;;;;;;;5.50;4.00;;;;;8.46;56.94;102370.47;2206409;25;2754401;-72
2024/04/21 01:48:54;;;;;;;;;5.33;5.00;;;;;8.47;57.03;102374.84;2151792;25;2749677;-72
2024/04/21 01:50:06;;;;;;;;;4.67;3.67;;;;;8.47;56.79;102361.72;2178001;26;2752366;-72
2024/04/21 01:51:20;;;;;;;;;8.00;4.67;;;;;8.43;56.93;102360.88;2207254;26;2754395;-72
2024/04/21 01:52:34;;;;;;;;;5.50;3.83;;;;;8.44;56.59;102361.75;2173932;26;2738751;-72
2024/04/21 01:53:45;;;;;;;;;7.67;4.67;;;;;8.44;57.33;102365.22;2164380;26;2757540;-73
2024/04/21 01:54:58;;;;;;;;;4.00;3.50;;;;;8.41;57.12;102356.50;2208015;25;2752302;-72
2024/04/21 01:56:12;;;;;;;;;8.00;5.33;;;;;8.38;56.53;102357.34;2199123;26;2750239;-72
2024/04/21 01:57:26;;;;;;;;;9.50;4.00;;;;;8.38;57.10;102357.34;2191693;26;2757504;-72
2024/04/21 01:58:40;;;;;;;;;4.83;3.33;;;;;8.36;56.71;102353.84;2167245;26;2750249;-73
2024/04/21 01:59:53;;;;;;;;;5.00;5.00;;;;;8.34;57.16;102352.97;2166643;26;2754402;-72
2024/04/21 02:01:07;;;;;;;;;4.83;4.83;;;;;8.33;56.76;102348.59;2192181;26;2738759;-72
2024/04/21 02:02:21;;;;;;;;;6.83;5.00;;;;;8.30;57.38;102349.47;2168863;26;2741923;-72
2024/04/21 02:03:35;;;;;;;;;8.33;5.17;;;;;8.30;56.63;102354.72;2181815;25;2750221;-72
2024/04/21 02:04:48;;;;;;;;;6.50;4.83;;;;;8.31;56.96;102346.00;2181749;25;2746058;-73
2024/04/21 02:06:02;;;;;;;;;4.00;0.83;;;;;8.33;57.27;102352.09;2207270;26;2735653;-73
2024/04/21 02:07:16;;;;;;;;;6.50;4.17;;;;;8.32;57.10;102337.25;2208200;26;2741887;-73
2024/04/21 02:08:30;;;;;;;;;6.17;4.33;;;;;8.33;57.24;102344.25;2181095;26;2751341;-73
2024/04/21 02:09:43;;;;;;;;;5.17;4.67;;;;;8.32;57.51;102331.16;2193680;26;2752296;-73
2024/04/21 02:10:57;;;;;;;;;6.83;5.00;;;;;8.35;57.28;102341.63;2169774;26;2747092;-72
2024/04/21 02:12:11;;;;;;;;;7.00;5.00;;;;;8.33;57.02;102336.38;2168203;26;2739819;-72
2024/04/21 02:13:22;;;;;;;;;8.33;6.00;;;;;8.37;57.11;102342.50;2165637;26;2749207;-73
2024/04/21 02:14:36;;;;;;;;;6.50;5.33;;;;;8.36;56.61;102339.88;2194587;26;2742938;-72
2024/04/21 02:15:50;;;;;;;;;6.50;5.00;;;;;8.38;57.30;102335.50;2206519;26;2748117;-72
2024/04/21 02:17:04;;;;;;;;;5.50;4.17;;;;;8.35;56.94;102336.38;2204618;26;2740846;-73
2024/04/21 02:18:17;;;;;;;;;4.17;3.83;;;;;8.34;57.30;102329.41;2167788;26;2754403;-73
2024/04/21 02:19:31;;;;;;;;;5.17;5.00;;;;;8.30;56.70;102333.75;2181197;26;2754399;-73
2024/04/21 02:20:45;;;;;;;;;6.67;6.00;;;;;8.32;57.18;102336.38;2181774;25;2752300;-73
2024/04/21 02:21:59;;;;;;;;;4.83;4.17;;;;;8.32;57.38;102333.78;2204078;26;2746063;-73
2024/04/21 02:23:12;;;;;;;;;7.67;3.67;;;;;8.32;57.56;102337.25;2172135;26;2748169;-73
2024/04/21 02:24:26;;;;;;;;;5.67;4.67;;;;;8.29;57.61;102331.13;2194176;26;2743970;-72
2024/04/21 02:25:41;;;;;;;;;4.83;4.67;;;;;8.31;56.80;102327.66;2204878;26;2730402;-73
2024/04/21 02:26:55;;;;;;;;;3.83;3.17;;;;;8.30;57.48;102331.13;2195176;26;2738773;-73
2024/04/21 02:28:09;;;;;;;;;5.67;5.50;;;;;8.31;57.29;102338.13;2166975;26;2748128;-73
2024/04/21 02:29:22;;;;;;;;;7.00;5.00;;;;;8.31;57.16;102338.13;2192480;26;2745039;-73
2024/04/21 02:30:36;;;;;;;;;7.00;6.00;;;;;8.31;57.05;102335.50;2192982;26;2745021;-73
2024/04/21 02:31:50;;;;;;;;;9.83;7.00;;;;;8.33;57.07;102339.00;2206015;26;2749158;-73
2024/04/21 02:33:04;;;;;;;;;11.33;8.00;;;;;8.36;57.12;102342.50;2181357;25;2760633;-73
2024/04/21 02:34:18;;;;;;;;;6.50;5.33;;;;;8.33;57.17;102333.75;2183626;25;2745001;-73
2024/04/21 02:35:31;;;;;;;;;8.50;7.17;;;;;8.36;57.91;102335.50;2204884;26;2752420;-73
2024/04/21 02:36:45;;;;;;;;;8.50;8.50;;;;;8.37;57.02;102331.16;2198591;26;2732497;-73
2024/04/21 02:37:59;;;;;;;;;6.83;6.00;;;;;8.35;57.26;102330.25;2191589;26;2746032;-72
2024/04/21 02:39:13;;;;;;;;;4.83;4.67;;;;;8.33;57.27;102338.13;2191541;26;2738794;-72
2024/04/21 02:40:28;;;;;;;;;8.50;6.33;;;;;8.29;57.00;102333.75;2166326;26;2746034;-73
2024/04/21 02:41:39;;;;;;;;;7.33;5.00;;;;;8.30;56.86;102333.75;2138504;26;2762758;-73
2024/04/21 02:42:53;;;;;;;;;5.50;4.00;;;;;8.31;57.10;102339.88;2192406;26;2737728;-72
2024/04/21 02:44:07;;;;;;;;;5.83;4.67;;;;;8.30;56.65;102341.59;2192318;26;2754409;-72
2024/04/21 02:45:21;;;;;;;;;8.50;4.33;;;;;8.25;57.22;102326.78;2182991;26;2741882;-72
2024/04/21 02:46:35;;;;;;;;;5.50;5.50;;;;;8.24;56.84;102333.75;2182261;25;2750254;-72
2024/04/21 02:47:48;;;;;;;;;6.33;4.83;;;;;8.26;56.84;102336.34;2204338;26;2762708;-73
2024/04/21 02:49:02;;;;;;;;;6.00;5.00;;;;;8.23;56.64;102334.59;2180938;26;2735664;-73
2024/04/21 02:50:16;;;;;;;;;8.00;3.83;;;;;8.22;56.68;102338.13;2193992;26;2755425;-72
2024/04/21 02:51:30;;;;;;;;;4.83;4.33;;;;;8.20;57.21;102337.22;2166723;26;2738775;-72
2024/04/21 02:52:41;;;;;;;;;9.00;6.00;;;;;8.19;56.69;102330.25;2163337;26;2757598;-72
2024/04/21 02:53:54;;;;;;;;;7.33;5.17;;;;;8.21;56.74;102331.09;2193397;26;2748156;-73
2024/04/21 02:55:08;;;;;;;;;5.50;4.33;;;;;8.22;56.46;102336.34;2206885;26;2741864;-72
2024/04/21 02:56:22;;;;;;;;;6.17;5.00;;;;;8.19;56.49;102332.84;2205584;26;2744005;-72
2024/04/21 02:57:36;;;;;;;;;5.17;5.17;;;;;8.15;57.00;102326.72;2193067;26;2754381;-73
2024/04/21 02:58:49;;;;;;;;;4.33;3.83;;;;;8.19;56.80;102331.13;2180524;26;2738189;-72
2024/04/21 03:00:03;;;;;;;;;7.33;5.00;;;;;8.18;56.47;102333.72;2205224;26;2748172;-73
2024/04/21 03:01:17;;;;;;;;;5.00;4.17;;;;;8.16;56.69;102330.22;2168588;26;2743954;-72
2024/04/21 03:02:31;;;;;;;;;5.83;5.83;;;;;8.14;56.21;102327.59;2181839;26;2740872;-72
2024/04/21 03:03:47;;;;;;;;;6.83;5.00;;;;;8.16;56.73;102327.59;2204494;26;2748207;-73
2024/04/21 03:05:01;;;;;;;;;3.17;3.17;;;;;8.16;56.82;102327.59;2194333;26;2743970;-73
2024/04/21 03:06:15;;;;;;;;;9.33;5.00;;;;;8.18;56.74;102328.47;2181016;26;2740845;-72
2024/04/21 03:07:29;;;;;;;;;5.00;4.17;;;;;8.12;56.57;102321.50;2183168;25;2750204;-72
2024/04/21 03:08:43;;;;;;;;;5.50;5.17;;;;;8.12;56.73;102318.88;2181772;25;2750270;-73
2024/04/21 03:09:56;;;;;;;;;5.00;2.83;;;;;8.09;56.52;102330.22;2208723;26;2743947;-72
2024/04/21 03:11:10;;;;;;;;;7.67;4.83;;;;;8.05;56.12;102311.88;2206435;26;2752311;-72
2024/04/21 03:12:24;;;;;;;;;5.00;3.00;;;;;8.04;56.52;102324.09;2179863;25;2754395;-72
2024/04/21 03:13:35;;;;;;;;;4.33;4.00;;;;;8.05;56.52;102317.97;2153301;25;2754374;-72
2024/04/21 03:14:48;;;;;;;;;6.67;5.33;;;;;8.06;56.43;102330.19;2207070;25;2756960;-72
2024/04/21 03:16:03;;;;;;;;;6.33;5.17;;;;;8.06;56.84;102318.84;2207174;25;2754725;-72
2024/04/21 03:17:21;;;;;;;;;4.17;4.17;;;;;8.01;56.69;102315.31;2202128;26;2749162;-72
2024/04/21 03:18:35;;;;;;;;;6.33;5.00;;;;;8.03;56.63;102313.59;2208699;25;2750522;-72
2024/04/21 03:19:49;;;;;;;;;4.67;4.33;;;;;8.01;56.57;102320.56;2207480;26;2750208;-72
2024/04/21 03:21:02;;;;;;;;;5.83;5.33;;;;;8.01;56.97;102310.97;2168710;26;2739816;-72
2024/04/21 03:22:17;;;;;;;;;7.17;4.83;;;;;8.03;57.14;102311.84;2206930;26;2744416;-72
2024/04/21 03:23:30;;;;;;;;;6.50;4.00;;;;;8.07;56.54;102316.25;2206916;25;2748117;-73
2024/04/21 03:24:44;;;;;;;;;4.67;3.33;;;;;8.04;56.97;102323.19;2179886;26;2735674;-72
2024/04/21 03:25:58;;;;;;;;;4.50;3.50;;;;;7.98;56.98;102318.81;2207155;26;2749159;-72
2024/04/21 03:27:12;;;;;;;;;3.33;2.83;;;;;7.96;56.79;102323.16;2172705;26;2754403;-72
2024/04/21 03:28:25;;;;;;;;;5.83;4.67;;;;;7.97;56.73;102315.34;2192990;26;2738758;-72
2024/04/21 03:29:39;;;;;;;;;5.33;4.17;;;;;7.95;56.35;102311.81;2191621;26;2750267;-72
2024/04/21 03:30:56;;;;;;;;;6.67;4.17;;;;;7.94;56.48;102315.31;2167833;26;2739832;-72
2024/04/21 03:32:09;;;;;;;;;6.50;5.83;;;;;7.96;56.91;102317.94;2175110;26;2750211;-72
2024/04/21 03:33:23;;;;;;;;;6.50;5.67;;;;;7.95;56.76;102316.19;2181609;26;2746081;-72
2024/04/21 03:34:37;;;;;;;;;5.50;5.50;;;;;7.93;56.52;102315.28;2205995;25;2743954;-72
2024/04/21 03:36:08;;;;;;;;;3.83;3.00;;;;;7.97;57.16;102325.81;2180589;25;2751274;-72
2024/04/21 03:37:22;;;;;;;;;6.00;5.00;;;;;8.01;56.97;102316.22;2192777;26;2748117;-72
2024/04/21 03:38:37;;;;;;;;;2.17;2.17;;;;;8.01;56.48;102320.56;2191087;26;2737721;-72
2024/04/21 03:39:51;;;;;;;;;6.83;5.00;;;;;8.03;56.80;102326.69;2207382;26;2746030;-72
2024/04/21 03:41:02;;;;;;;;;6.00;6.00;;;;;8.00;56.78;102327.53;2153190;26;2754408;-72
2024/04/21 03:42:15;;;;;;;;;6.00;4.50;;;;;7.91;56.55;102325.78;2205876;26;2737724;-73
2024/04/21 03:43:29;;;;;;;;;4.00;4.00;;;;;7.88;57.09;102316.16;2182524;26;2737728;-72
2024/04/21 03:44:43;;;;;;;;;4.83;4.00;;;;;7.92;56.89;102324.03;2202907;26;2748581;-73
2024/04/21 03:45:57;;;;;;;;;5.17;5.17;;;;;7.94;56.93;102325.78;2194708;26;2754823;-73
2024/04/21 03:47:11;;;;;;;;;3.17;2.83;;;;;7.95;56.67;102324.06;2194221;26;2735618;-73
2024/04/21 03:48:25;;;;;;;;;3.67;3.67;;;;;7.92;56.56;102321.41;2178493;26;2739831;-72
2024/04/21 03:49:39;;;;;;;;;5.17;4.00;;;;;7.90;56.75;102320.53;2199439;26;2752285;-72
2024/04/21 03:50:52;;;;;;;;;6.33;3.83;;;;;7.86;56.92;102317.91;2181086;26;2737709;-72
2024/04/21 03:52:06;;;;;;;;;5.33;4.00;;;;;7.86;57.03;102312.66;2175044;26;2748145;-72
2024/04/21 03:53:22;;;;;;;;;5.00;4.00;;;;;7.85;57.46;102320.53;2205905;25;2754379;-72
2024/04/21 03:54:36;;;;;;;;;7.50;3.33;;;;;7.85;56.88;102316.13;2179182;26;2756516;-72
2024/04/21 03:55:49;;;;;;;;;4.17;4.17;;;;;7.81;56.93;102303.03;2192296;26;2739803;-72
2024/04/21 03:57:06;;;;;;;;;4.67;4.67;;;;;7.81;56.94;102309.16;2192328;26;2750277;-73
2024/04/21 03:58:20;;;;;;;;;4.83;4.00;;;;;7.84;56.85;102311.78;2169738;26;2754384;-72
2024/04/21 03:59:34;;;;;;;;;5.67;4.67;;;;;7.84;57.09;102301.31;2192054;26;2739816;-73
2024/04/21 04:00:48;;;;;;;;;5.50;5.00;;;;;7.84;56.76;102301.31;2190245;26;2750209;-72
2024/04/21 04:02:01;;;;;;;;;7.33;4.33;;;;;7.86;57.23;102307.44;2168338;26;2731476;-73
2024/04/21 04:03:12;;;;;;;;;10.33;5.00;;;;;7.82;57.33;102297.81;2136879;26;2776445;-73
2024/04/21 04:04:26;;;;;;;;;6.33;5.17;;;;;7.85;57.17;102300.44;2191941;26;2746053;-72
2024/04/21 04:05:43;;;;;;;;;4.00;4.00;;;;;7.79;57.29;102294.31;2194361;26;2748123;-73
2024/04/21 04:06:58;;;;;;;;;5.50;4.67;;;;;7.78;57.25;102295.19;2208623;26;2740878;-72
2024/04/21 04:08:09;;;;;;;;;12.00;4.33;;;;;7.79;57.20;102305.66;2163343;26;2781508;-73
2024/04/21 04:09:23;;;;;;;;;4.50;4.00;;;;;7.78;57.23;102303.03;2192001;26;2750193;-72
2024/04/21 04:10:39;;;;;;;;;8.67;5.33;;;;;7.76;57.16;102297.78;2192577;26;2745024;-72
2024/04/21 04:11:53;;;;;;;;;5.67;5.67;;;;;7.70;57.33;102290.81;2191051;26;2746145;-72
2024/04/21 04:13:04;;;;;;;;;4.00;4.00;;;;;7.69;57.45;102294.28;2150925;26;2747211;-72
2024/04/21 04:14:18;;;;;;;;;6.00;5.50;;;;;7.68;57.25;102292.50;2205518;26;2754359;-72
2024/04/21 04:15:32;;;;;;;;;5.83;5.83;;;;;7.68;57.37;102289.03;2203643;26;2748152;-73
2024/04/21 04:16:45;;;;;;;;;5.83;4.17;;;;;7.65;57.37;102285.53;2192788;26;2752315;-72
2024/04/21 04:17:59;;;;;;;;;4.67;4.00;;;;;7.68;57.54;102286.44;2191545;26;2746042;-72
2024/04/21 04:19:13;;;;;;;;;3.83;3.00;;;;;7.67;57.39;102284.66;2166648;26;2754384;-72
2024/04/21 04:20:26;;;;;;;;;6.17;6.17;;;;;7.69;57.76;102293.41;2206703;25;2752603;-72
2024/04/21 04:21:40;;;;;;;;;5.50;4.17;;;;;7.71;57.15;102291.66;2181318;26;2729384;-72
2024/04/21 04:22:54;;;;;;;;;3.50;3.17;;;;;7.73;57.53;102290.78;2191859;26;2752332;-72
2024/04/21 04:24:08;;;;;;;;;3.33;3.33;;;;;7.73;57.27;102287.31;2189978;26;2750201;-72
2024/04/21 04:25:19;;;;;;;;;3.67;3.67;;;;;7.76;57.14;102288.19;2164720;26;2754388;-72
2024/04/21 04:26:32;;;;;;;;;5.67;4.33;;;;;7.78;57.46;102284.72;2191793;26;2741859;-72
2024/04/21 04:27:46;;;;;;;;;4.33;2.50;;;;;7.76;57.42;102287.31;2191406;26;2750263;-72
2024/04/21 04:29:00;;;;;;;;;3.83;2.83;;;;;7.75;57.29;102282.97;2176788;26;2741864;-72
2024/04/21 04:30:14;;;;;;;;;5.50;4.00;;;;;7.73;57.09;102284.72;2179506;26;2752317;-72
2024/04/21 04:31:28;;;;;;;;;7.00;3.17;;;;;7.74;57.25;102291.69;2206302;26;2750217;-72
2024/04/21 04:32:41;;;;;;;;;4.83;4.00;;;;;7.70;57.33;102290.81;2166467;26;2746030;-72
2024/04/21 04:33:55;;;;;;;;;5.00;4.00;;;;;7.67;57.66;102289.91;2202232;26;2752339;-72
2024/04/21 04:35:09;;;;;;;;;4.67;3.83;;;;;7.64;57.78;102289.03;2183140;25;2733549;-72
2024/04/21 04:36:23;;;;;;;;;5.83;5.17;;;;;7.64;57.43;102290.75;2205638;26;2748136;-72
2024/04/21 04:37:37;;;;;;;;;6.00;4.17;;;;;7.60;57.63;102284.66;2193235;26;2741907;-72
2024/04/21 04:38:50;;;;;;;;;4.67;4.67;;;;;7.61;57.54;102281.16;2194137;26;2737697;-72
2024/04/21 04:40:05;;;;;;;;;3.67;3.00;;;;;7.64;57.60;102289.03;2191751;26;2754418;-72
2024/04/21 04:41:19;;;;;;;;;8.67;4.33;;;;;7.64;57.08;102288.16;2193790;26;2767912;-72
2024/04/21 04:42:32;;;;;;;;;3.00;3.00;;;;;7.62;57.43;102282.91;2172423;26;2749178;-72
2024/04/21 04:43:46;;;;;;;;;4.83;3.83;;;;;7.64;57.71;102293.38;2166730;26;2743974;-72
2024/04/21 04:45:01;;;;;;;;;7.67;3.00;;;;;7.60;57.57;102283.78;2205840;26;2737708;-72
2024/04/21 04:46:14;;;;;;;;;3.67;3.00;;;;;7.59;57.35;102284.63;2180636;26;2754470;-72
2024/04/21 04:47:28;;;;;;;;;2.50;2.50;;;;;7.59;57.08;102282.88;2172619;26;2747534;-72
2024/04/21 04:48:42;;;;;;;;;2.83;2.83;;;;;7.57;57.49;102284.63;2206992;25;2754819;-72
2024/04/21 04:49:56;;;;;;;;;2.67;2.50;;;;;7.58;57.51;102286.34;2206861;25;2739284;-72
2024/04/21 04:51:09;;;;;;;;;4.17;3.17;;;;;7.54;57.60;102284.59;2181591;25;2754363;-72
2024/04/21 04:52:23;;;;;;;;;4.17;3.83;;;;;7.53;57.24;102283.72;2184453;25;2741927;-72
2024/04/21 04:53:37;;;;;;;;;3.50;2.83;;;;;7.51;57.46;102285.47;2208312;25;2737775;-72
2024/04/21 04:54:51;;;;;;;;;4.17;4.00;;;;;7.48;57.77;102285.44;2206980;25;2754390;-72
2024/04/21 04:56:04;;;;;;;;;2.00;2.00;;;;;7.46;57.57;102279.34;2182302;25;2738765;-72
2024/04/21 04:57:18;;;;;;;;;1.17;1.17;;;;;7.49;57.77;102281.09;2208463;25;2738774;-72
2024/04/21 04:58:32;;;;;;;;;5.50;4.00;;;;;7.50;57.57;102281.13;2207961;25;2742130;-72
2024/04/21 04:59:46;;;;;;;;;2.67;2.67;;;;;7.53;57.76;102275.88;2207090;25;2754394;-72
2024/04/21 05:00:59;;;;;;;;;2.83;2.83;;;;;7.56;57.59;102288.09;2204919;25;2749177;-72
2024/04/21 05:02:13;;;;;;;;;4.00;4.00;;;;;7.55;57.19;102281.13;2206867;26;2750519;-72
2024/04/21 05:03:27;;;;;;;;;4.00;3.83;;;;;7.51;57.12;102280.22;2206057;26;2754853;-72
2024/04/21 05:04:40;;;;;;;;;4.00;4.00;;;;;7.53;57.20;102283.72;2208120;25;2743959;-72
2024/04/21 05:05:54;;;;;;;;;4.33;4.33;;;;;7.55;58.06;102281.13;2207758;25;2743987;-72
2024/04/21 05:07:08;;;;;;;;;3.50;2.33;;;;;7.57;57.57;102283.75;2206607;26;2737757;-72
2024/04/21 05:08:22;;;;;;;;;3.33;2.67;;;;;7.55;57.37;102283.75;2207819;26;2754371;-72
2024/04/21 05:09:36;;;;;;;;;3.83;3.33;;;;;7.53;57.54;102280.25;2171338;26;2739892;-72
2024/04/21 05:10:49;;;;;;;;;4.50;3.00;;;;;7.54;57.42;102279.38;2208576;25;2750219;-72
2024/04/21 05:12:03;;;;;;;;;4.00;4.00;;;;;7.61;57.97;102285.50;2180781;25;2751267;-72
2024/04/21 05:13:17;;;;;;;;;4.50;3.67;;;;;7.64;57.86;102280.28;2180609;26;2754393;-72
2024/04/21 05:14:31;;;;;;;;;5.50;4.00;;;;;7.65;57.84;102277.66;2181348;26;2756467;-72
2024/04/21 05:15:46;;;;;;;;;4.50;3.17;;;;;7.66;57.41;102278.56;2182487;26;2740243;-72
2024/04/21 05:17:00;;;;;;;;;6.00;4.50;;;;;7.68;57.26;102281.19;2206973;25;2754367;-72
2024/04/21 05:18:14;;;;;;;;;5.50;3.83;;;;;7.64;57.43;102280.28;2180888;26;2743969;-72
2024/04/21 05:19:28;;;;;;;;;6.33;5.00;;;;;7.65;57.39;102282.06;2206789;26;2740869;-72
2024/04/21 05:20:41;;;;;;;;;3.83;3.83;;;;;7.67;57.34;102282.94;2181684;26;2754379;-72
2024/04/21 05:21:55;;;;;;;;;5.67;3.00;;;;;7.67;57.57;102280.31;2181049;26;2751250;-72
2024/04/21 05:23:09;;;;;;;;;5.83;5.00;;;;;7.67;57.81;102279.44;2183167;26;2740862;-72
2024/04/21 05:24:23;;;;;;;;;4.50;3.67;;;;;7.67;57.76;102287.28;2205466;26;2752292;-72
2024/04/21 05:25:36;;;;;;;;;6.33;3.83;;;;;7.68;57.56;102284.66;2193783;26;2760644;-72
2024/04/21 05:26:50;;;;;;;;;4.67;4.67;;;;;7.69;57.45;102283.81;2204780;26;2754391;-72
2024/04/21 05:28:04;;;;;;;;;5.00;4.00;;;;;7.68;57.95;102282.03;2180313;26;2748117;-72
2024/04/21 05:29:18;;;;;;;;;1.83;1.67;;;;;7.68;57.46;102292.50;2203771;26;2737743;-72
2024/04/21 05:30:31;;;;;;;;;5.67;3.00;;;;;7.65;58.01;102282.06;2204966;26;2754390;-72
2024/04/21 05:31:45;;;;;;;;;4.17;4.00;;;;;7.67;57.47;102284.66;2181008;26;2742937;-72
2024/04/21 05:32:59;;;;;;;;;4.50;3.67;;;;;7.71;57.85;102286.41;2182123;25;2745043;-72
2024/04/21 05:34:16;;;;;;;;;4.83;3.00;;;;;7.77;57.62;102291.69;2192801;26;2736686;-72
2024/04/21 05:35:30;;;;;;;;;5.33;3.00;;;;;7.76;57.63;102290.81;2194673;26;2747154;-72
2024/04/21 05:36:43;;;;;;;;;4.50;3.83;;;;;7.70;57.88;102290.81;2199604;26;2754397;-72
2024/04/21 05:37:58;;;;;;;;;4.83;3.00;;;;;7.69;57.80;102288.16;2192155;26;2754395;-72
2024/04/21 05:39:12;;;;;;;;;6.33;5.00;;;;;7.71;57.65;102291.66;2208466;25;2747088;-72